METAR AND TAF INFORMATION
METAR FOR MMMY
MMMY 230240Z 13005KT 10SM SKC 26/21 A2994 RMK SLP125 52005 964 ISOL CU
MMMY 230140Z 14005KT 10SM SKC 28/21 A2994 RMK ISOL SC CU
MMMY 230040Z 12008KT 10SM FEW030 30/21 A2993 RMK 8/500 ISOL CI

TAF MMMY 222329Z 2300/2400 10010KT P6SM SCT030 TX31/2320Z TN22/2310Z
FM230300 12005KT P6SM SCT015
TEMPO 2310/2314 5SM HZ BKN015
FM231600 10006KT P6SM SCT020
FM231900 09010KT P6SM BKN030
BECMG 2320/2321 BKN030CB

 AIRPORT MAP

 RUNWAY INFORMATION
Runway 11 Runway length 9843 ft Runway width 148 ft
Runway elevation 1277 ft Runway displaced threshold 0 ft Runway heading 121
Runway 29 Runway length 9843 ft Runway width 148 ft
Runway elevation 1234 ft Runway displaced threshold 0 ft Runway heading 301
Runway 16 Runway length 5909 ft Runway width 98 ft
Runway elevation 1271 ft Runway displaced threshold 0 ft Runway heading 165
Runway 34 Runway length 5909 ft Runway width 98 ft
Runway elevation 1254 ft Runway displaced threshold 0 ft Runway heading 345

 AIRPORT FREQUENCIES
Type APP Name MONTERREY Frequency 119.75 MHZ
Type ATIS Name ATIS Frequency 127.7 MHZ
Type GND Name GND Frequency 121.9 MHZ
Type TWR Name MONTERREY Frequency 118.1 MHZ

 AIRPORT NEAR NAVIGATION AIDS
Type VOR-DME Name Monterrey Frequency 114700 KHZ

-